SLLP/LPB METAR and TAF weather

Enter ICAO airport designator
Station Type Date Time Source
SLLP METAR 2021/09/27 07:00 UTC NOAA

SLLP 270700Z 06004KT 4000E VCFG FEW002 SCT200 02/01 Q1039


Station Type Date Time Source
SLLP Decoded METAR 2021/09/27 07:00 UTC NOAA

La Paz / Alto, Bolivia (SLLP) 16-31S 068-11W 4038M
Sep 27, 2021 - 03:00 AM EDT / 2021.09.27 0700 UTC
Wind: from the ENE (060 degrees) at 5 MPH (4 KT):0
Visibility: 2 mile(s):0
Sky conditions: partly cloudy
Weather: fog in the vicinity
Temperature: 35 F (2 C)
Windchill: 30 F (-1 C):1
Dew Point: 33 F (1 C)
Relative Humidity: 93%
Pressure (altimeter): 30.68 in. Hg (1039 hPa)
ob: SLLP 270700Z 06004KT 4000E VCFG FEW002 SCT200 02/01 Q1039
cycle: 7

Station Type Date Time Source
SLLP TAF 2021/09/27 06:25 UTC NOAA

TAF SLLP 270400Z 2706/2806 05005KT 9999 FEW010 TX19/2719Z TN01/2710Z
TEMPO 2707/2711 3000E BCFG
BECMG 2714/2717 13012KT
BECMG 2723/2803 06005KT

Example: see airport list